sensor_id;sensor_type;location;lat;lon;timestamp;temperature;humidity
26182;DHT22;13927;51.534;11.866;2023-08-17T00:00:13;22.00;99.90
26182;DHT22;13927;51.534;11.866;2023-08-17T00:02:43;22.10;99.90
26182;DHT22;13927;51.534;11.866;2023-08-17T00:05:11;22.10;99.90
26182;DHT22;13927;51.534;11.866;2023-08-17T00:07:44;22.10;99.90
26182;DHT22;13927;51.534;11.866;2023-08-17T00:10:10;22.10;99.90
26182;DHT22;13927;51.534;11.866;2023-08-17T00:12:37;22.10;99.90
26182;DHT22;13927;51.534;11.866;2023-08-17T00:15:04;22.10;99.90
26182;DHT22;13927;51.534;11.866;2023-08-17T00:17:42;22.10;99.90
26182;DHT22;13927;51.534;11.866;2023-08-17T00:20:09;22.10;99.90
26182;DHT22;13927;51.534;11.866;2023-08-17T00:22:40;22.10;99.90
26182;DHT22;13927;51.534;11.866;2023-08-17T00:25:13;22.10;99.90
26182;DHT22;13927;51.534;11.866;2023-08-17T00:27:39;22.10;99.90
26182;DHT22;13927;51.534;11.866;2023-08-17T00:30:08;22.10;99.90
26182;DHT22;13927;51.534;11.866;2023-08-17T00:32:35;22.00;99.90
26182;DHT22;13927;51.534;11.866;2023-08-17T00:35:01;22.00;99.90
26182;DHT22;13927;51.534;11.866;2023-08-17T00:37:30;21.90;99.90
26182;DHT22;13927;51.534;11.866;2023-08-17T00:40:01;21.90;99.90
26182;DHT22;13927;51.534;11.866;2023-08-17T00:42:27;21.90;99.90
26182;DHT22;13927;51.534;11.866;2023-08-17T00:44:53;21.90;99.90
26182;DHT22;13927;51.534;11.866;2023-08-17T00:47:20;21.90;99.90
26182;DHT22;13927;51.534;11.866;2023-08-17T00:52:51;21.90;99.90
26182;DHT22;13927;51.534;11.866;2023-08-17T00:55:33;21.90;99.90
26182;DHT22;13927;51.534;11.866;2023-08-17T00:58:00;21.90;99.90
26182;DHT22;13927;51.534;11.866;2023-08-17T01:00:33;21.90;99.90
26182;DHT22;13927;51.534;11.866;2023-08-17T01:02:59;21.90;99.90
26182;DHT22;13927;51.534;11.866;2023-08-17T01:05:25;21.90;99.90
26182;DHT22;13927;51.534;11.866;2023-08-17T01:07:51;21.80;99.90
26182;DHT22;13927;51.534;11.866;2023-08-17T01:10:33;21.80;99.90
26182;DHT22;13927;51.534;11.866;2023-08-17T01:16:47;21.80;99.90
26182;DHT22;13927;51.534;11.866;2023-08-17T01:19:35;21.80;99.90
26182;DHT22;13927;51.534;11.866;2023-08-17T01:22:08;21.70;99.90
26182;DHT22;13927;51.534;11.866;2023-08-17T01:24:38;21.60;99.90
26182;DHT22;13927;51.534;11.866;2023-08-17T01:27:07;21.50;99.90
26182;DHT22;13927;51.534;11.866;2023-08-17T01:29:33;21.40;99.90
26182;DHT22;13927;51.534;11.866;2023-08-17T01:32:26;21.30;99.90
26182;DHT22;13927;51.534;11.866;2023-08-17T01:35:33;21.20;99.90
26182;DHT22;13927;51.534;11.866;2023-08-17T01:38:11;21.20;99.90
26182;DHT22;13927;51.534;11.866;2023-08-17T01:40:39;21.20;99.90
26182;DHT22;13927;51.534;11.866;2023-08-17T01:43:09;21.20;99.90
26182;DHT22;13927;51.534;11.866;2023-08-17T01:49:24;20.70;99.90
26182;DHT22;13927;51.534;11.866;2023-08-17T01:51:59;20.60;99.90
26182;DHT22;13927;51.534;11.866;2023-08-17T01:54:37;20.40;99.90
26182;DHT22;13927;51.534;11.866;2023-08-17T01:57:05;20.10;99.90
26182;DHT22;13927;51.534;11.866;2023-08-17T01:59:33;19.60;99.90
26182;DHT22;13927;51.534;11.866;2023-08-17T02:02:08;19.40;99.90
26182;DHT22;13927;51.534;11.866;2023-08-17T02:04:37;19.40;99.90
26182;DHT22;13927;51.534;11.866;2023-08-17T02:07:05;19.30;99.90
26182;DHT22;13927;51.534;11.866;2023-08-17T02:09:33;19.40;99.90
26182;DHT22;13927;51.534;11.866;2023-08-17T02:12:01;19.30;99.90
26182;DHT22;13927;51.534;11.866;2023-08-17T02:14:27;19.40;99.90
26182;DHT22;13927;51.534;11.866;2023-08-17T02:16:56;19.40;99.90
26182;DHT22;13927;51.534;11.866;2023-08-17T02:19:24;19.50;99.90
26182;DHT22;13927;51.534;11.866;2023-08-17T02:21:52;19.50;99.90
26182;DHT22;13927;51.534;11.866;2023-08-17T02:24:18;19.50;99.90
26182;DHT22;13927;51.534;11.866;2023-08-17T02:26:46;19.70;99.90
26182;DHT22;13927;51.534;11.866;2023-08-17T02:29:12;19.70;99.90
26182;DHT22;13927;51.534;11.866;2023-08-17T02:31:42;19.70;99.90
26182;DHT22;13927;51.534;11.866;2023-08-17T02:34:12;19.70;99.90
26182;DHT22;13927;51.534;11.866;2023-08-17T02:36:38;19.80;99.90
26182;DHT22;13927;51.534;11.866;2023-08-17T02:39:05;19.80;99.90
26182;DHT22;13927;51.534;11.866;2023-08-17T02:41:33;19.90;99.90
26182;DHT22;13927;51.534;11.866;2023-08-17T02:44:01;19.90;99.90
26182;DHT22;13927;51.534;11.866;2023-08-17T02:46:28;20.00;99.90
26182;DHT22;13927;51.534;11.866;2023-08-17T02:48:56;20.00;99.90
26182;DHT22;13927;51.534;11.866;2023-08-17T02:51:29;20.00;99.90
26182;DHT22;13927;51.534;11.866;2023-08-17T02:54:00;20.10;99.90
26182;DHT22;13927;51.534;11.866;2023-08-17T02:56:26;20.00;99.90
26182;DHT22;13927;51.534;11.866;2023-08-17T02:58:52;20.10;99.90
26182;DHT22;13927;51.534;11.866;2023-08-17T03:01:19;20.10;99.90
26182;DHT22;13927;51.534;11.866;2023-08-17T03:03:46;20.10;99.90
26182;DHT22;13927;51.534;11.866;2023-08-17T03:06:14;20.20;99.90
26182;DHT22;13927;51.534;11.866;2023-08-17T03:08:42;20.20;99.90
26182;DHT22;13927;51.534;11.866;2023-08-17T03:11:14;20.20;99.90
26182;DHT22;13927;51.534;11.866;2023-08-17T03:13:40;20.30;99.90
26182;DHT22;13927;51.534;11.866;2023-08-17T03:16:08;20.20;99.90
26182;DHT22;13927;51.534;11.866;2023-08-17T03:18:35;20.20;99.90
26182;DHT22;13927;51.534;11.866;2023-08-17T03:21:01;20.20;99.90
26182;DHT22;13927;51.534;11.866;2023-08-17T03:23:34;20.20;99.90
26182;DHT22;13927;51.534;11.866;2023-08-17T03:26:00;20.20;99.90
26182;DHT22;13927;51.534;11.866;2023-08-17T03:28:28;20.10;99.90
26182;DHT22;13927;51.534;11.866;2023-08-17T03:30:56;20.10;99.90
26182;DHT22;13927;51.534;11.866;2023-08-17T03:33:31;20.10;99.90
26182;DHT22;13927;51.534;11.866;2023-08-17T03:35:58;20.00;99.90
26182;DHT22;13927;51.534;11.866;2023-08-17T03:38:23;20.00;99.90
26182;DHT22;13927;51.534;11.866;2023-08-17T03:40:57;20.00;99.90
26182;DHT22;13927;51.534;11.866;2023-08-17T03:43:24;20.00;99.90
26182;DHT22;13927;51.534;11.866;2023-08-17T03:45:52;20.00;99.90
26182;DHT22;13927;51.534;11.866;2023-08-17T03:48:18;20.00;99.90
26182;DHT22;13927;51.534;11.866;2023-08-17T03:51:08;20.00;99.90
26182;DHT22;13927;51.534;11.866;2023-08-17T03:53:35;20.10;99.90
26182;DHT22;13927;51.534;11.866;2023-08-17T03:56:03;20.00;99.90
26182;DHT22;13927;51.534;11.866;2023-08-17T03:58:35;20.00;99.90
26182;DHT22;13927;51.534;11.866;2023-08-17T04:01:02;20.00;99.90
26182;DHT22;13927;51.534;11.866;2023-08-17T04:03:34;20.00;99.90
26182;DHT22;13927;51.534;11.866;2023-08-17T04:06:05;20.00;99.90
26182;DHT22;13927;51.534;11.866;2023-08-17T04:08:39;20.00;99.90
26182;DHT22;13927;51.534;11.866;2023-08-17T04:11:06;20.00;99.90
26182;DHT22;13927;51.534;11.866;2023-08-17T04:13:36;20.00;99.90
26182;DHT22;13927;51.534;11.866;2023-08-17T04:16:04;19.90;99.90
26182;DHT22;13927;51.534;11.866;2023-08-17T04:18:32;19.90;99.90
26182;DHT22;13927;51.534;11.866;2023-08-17T04:21:00;19.90;99.90
26182;DHT22;13927;51.534;11.866;2023-08-17T04:23:28;19.80;99.90
26182;DHT22;13927;51.534;11.866;2023-08-17T04:25:57;19.70;99.90
26182;DHT22;13927;51.534;11.866;2023-08-17T04:28:24;19.60;99.90
26182;DHT22;13927;51.534;11.866;2023-08-17T04:30:51;19.50;99.90
26182;DHT22;13927;51.534;11.866;2023-08-17T04:33:28;19.50;99.90
26182;DHT22;13927;51.534;11.866;2023-08-17T04:35:57;19.50;99.90
26182;DHT22;13927;51.534;11.866;2023-08-17T04:38:33;19.40;99.90
26182;DHT22;13927;51.534;11.866;2023-08-17T04:41:06;19.40;99.90
26182;DHT22;13927;51.534;11.866;2023-08-17T04:43:40;19.50;99.90
26182;DHT22;13927;51.534;11.866;2023-08-17T04:46:15;19.50;99.90
26182;DHT22;13927;51.534;11.866;2023-08-17T04:48:41;19.50;99.90
26182;DHT22;13927;51.534;11.866;2023-08-17T04:51:07;19.50;99.90
26182;DHT22;13927;51.534;11.866;2023-08-17T04:53:33;19.50;99.90
26182;DHT22;13927;51.534;11.866;2023-08-17T04:55:59;19.50;99.90
26182;DHT22;13927;51.534;11.866;2023-08-17T04:58:25;19.50;99.90
26182;DHT22;13927;51.534;11.866;2023-08-17T05:00:51;19.60;99.90
26182;DHT22;13927;51.534;11.866;2023-08-17T05:03:16;19.50;99.90
26182;DHT22;13927;51.534;11.866;2023-08-17T05:05:42;19.50;99.90
26182;DHT22;13927;51.534;11.866;2023-08-17T05:08:09;19.60;99.90
26182;DHT22;13927;51.534;11.866;2023-08-17T05:10:35;19.60;99.90
26182;DHT22;13927;51.534;11.866;2023-08-17T05:13:02;19.70;99.90
26182;DHT22;13927;51.534;11.866;2023-08-17T05:15:28;19.70;99.90
26182;DHT22;13927;51.534;11.866;2023-08-17T05:17:53;19.80;99.90
26182;DHT22;13927;51.534;11.866;2023-08-17T05:20:19;19.80;99.90
26182;DHT22;13927;51.534;11.866;2023-08-17T05:22:47;19.90;99.90
26182;DHT22;13927;51.534;11.866;2023-08-17T05:25:14;20.00;99.90
26182;DHT22;13927;51.534;11.866;2023-08-17T05:27:40;20.00;99.90
26182;DHT22;13927;51.534;11.866;2023-08-17T05:30:06;20.10;99.90
26182;DHT22;13927;51.534;11.866;2023-08-17T05:32:32;20.10;99.90
26182;DHT22;13927;51.534;11.866;2023-08-17T05:34:58;20.10;99.90
26182;DHT22;13927;51.534;11.866;2023-08-17T05:37:24;20.10;99.90
26182;DHT22;13927;51.534;11.866;2023-08-17T05:39:49;20.20;99.90
26182;DHT22;13927;51.534;11.866;2023-08-17T05:42:35;20.20;99.90
26182;DHT22;13927;51.534;11.866;2023-08-17T05:45:02;20.30;99.90
26182;DHT22;13927;51.534;11.866;2023-08-17T05:47:28;20.30;99.90
26182;DHT22;13927;51.534;11.866;2023-08-17T05:49:54;20.40;99.90
26182;DHT22;13927;51.534;11.866;2023-08-17T05:52:19;20.50;99.90
26182;DHT22;13927;51.534;11.866;2023-08-17T05:54:51;20.40;99.90
26182;DHT22;13927;51.534;11.866;2023-08-17T05:57:17;20.40;99.90
26182;DHT22;13927;51.534;11.866;2023-08-17T05:59:43;20.40;99.90
26182;DHT22;13927;51.534;11.866;2023-08-17T06:02:08;20.20;99.90
26182;DHT22;13927;51.534;11.866;2023-08-17T06:04:34;20.20;99.90
26182;DHT22;13927;51.534;11.866;2023-08-17T06:07:00;20.20;99.90
26182;DHT22;13927;51.534;11.866;2023-08-17T06:09:25;20.10;99.90
26182;DHT22;13927;51.534;11.866;2023-08-17T06:11:51;20.10;99.90
26182;DHT22;13927;51.534;11.866;2023-08-17T06:14:17;20.20;99.90
26182;DHT22;13927;51.534;11.866;2023-08-17T06:16:42;20.20;99.90
26182;DHT22;13927;51.534;11.866;2023-08-17T06:19:08;20.10;99.90
26182;DHT22;13927;51.534;11.866;2023-08-17T06:21:34;20.10;99.90
26182;DHT22;13927;51.534;11.866;2023-08-17T06:23:59;20.20;99.90
26182;DHT22;13927;51.534;11.866;2023-08-17T06:26:25;20.20;99.90
26182;DHT22;13927;51.534;11.866;2023-08-17T06:28:52;20.40;99.90
26182;DHT22;13927;51.534;11.866;2023-08-17T06:31:18;20.50;99.90
26182;DHT22;13927;51.534;11.866;2023-08-17T06:33:45;20.60;99.90
26182;DHT22;13927;51.534;11.866;2023-08-17T06:36:11;20.70;99.90
26182;DHT22;13927;51.534;11.866;2023-08-17T06:38:41;20.90;99.90
26182;DHT22;13927;51.534;11.866;2023-08-17T06:41:08;21.10;99.90
26182;DHT22;13927;51.534;11.866;2023-08-17T06:43:33;21.20;99.90
26182;DHT22;13927;51.534;11.866;2023-08-17T06:45:59;21.20;99.90
26182;DHT22;13927;51.534;11.866;2023-08-17T06:48:26;21.30;99.90
26182;DHT22;13927;51.534;11.866;2023-08-17T06:50:53;21.50;99.90
26182;DHT22;13927;51.534;11.866;2023-08-17T06:53:19;21.80;99.90
26182;DHT22;13927;51.534;11.866;2023-08-17T06:55:45;21.90;99.90
26182;DHT22;13927;51.534;11.866;2023-08-17T06:58:11;22.20;99.90
26182;DHT22;13927;51.534;11.866;2023-08-17T07:00:36;22.40;99.90
26182;DHT22;13927;51.534;11.866;2023-08-17T07:03:06;22.60;99.90
26182;DHT22;13927;51.534;11.866;2023-08-17T07:05:32;22.70;99.90
26182;DHT22;13927;51.534;11.866;2023-08-17T07:08:31;22.70;99.90
26182;DHT22;13927;51.534;11.866;2023-08-17T07:10:58;22.80;99.90
26182;DHT22;13927;51.534;11.866;2023-08-17T07:13:24;22.90;99.90
26182;DHT22;13927;51.534;11.866;2023-08-17T07:15:49;23.10;99.90
26182;DHT22;13927;51.534;11.866;2023-08-17T07:18:15;23.30;99.90
26182;DHT22;13927;51.534;11.866;2023-08-17T07:20:41;23.40;99.90
26182;DHT22;13927;51.534;11.866;2023-08-17T07:23:07;23.50;99.90
26182;DHT22;13927;51.534;11.866;2023-08-17T07:25:33;23.60;99.90
26182;DHT22;13927;51.534;11.866;2023-08-17T07:27:58;23.60;99.90
26182;DHT22;13927;51.534;11.866;2023-08-17T07:30:24;23.70;99.90
26182;DHT22;13927;51.534;11.866;2023-08-17T07:32:50;23.80;99.90
26182;DHT22;13927;51.534;11.866;2023-08-17T07:35:16;23.70;99.90
26182;DHT22;13927;51.534;11.866;2023-08-17T07:37:42;23.80;99.90
26182;DHT22;13927;51.534;11.866;2023-08-17T07:40:08;23.90;99.90
26182;DHT22;13927;51.534;11.866;2023-08-17T07:42:34;23.90;99.90
26182;DHT22;13927;51.534;11.866;2023-08-17T07:44:59;24.00;99.90
26182;DHT22;13927;51.534;11.866;2023-08-17T07:47:26;24.10;99.90
26182;DHT22;13927;51.534;11.866;2023-08-17T07:49:55;24.30;99.90
26182;DHT22;13927;51.534;11.866;2023-08-17T07:56:04;24.50;99.90
26182;DHT22;13927;51.534;11.866;2023-08-17T07:58:29;24.80;99.90
26182;DHT22;13927;51.534;11.866;2023-08-17T08:00:55;24.90;99.90
26182;DHT22;13927;51.534;11.866;2023-08-17T08:03:24;24.80;99.90
26182;DHT22;13927;51.534;11.866;2023-08-17T08:09:31;24.90;99.90
26182;DHT22;13927;51.534;11.866;2023-08-17T08:11:57;24.70;99.90
26182;DHT22;13927;51.534;11.866;2023-08-17T08:14:22;24.60;99.90
26182;DHT22;13927;51.534;11.866;2023-08-17T08:16:48;24.50;99.90
26182;DHT22;13927;51.534;11.866;2023-08-17T08:19:14;24.60;99.90
26182;DHT22;13927;51.534;11.866;2023-08-17T08:21:40;24.70;99.90
26182;DHT22;13927;51.534;11.866;2023-08-17T08:24:18;24.60;99.90
26182;DHT22;13927;51.534;11.866;2023-08-17T08:26:44;24.60;99.90
26182;DHT22;13927;51.534;11.866;2023-08-17T08:29:09;24.70;99.90
26182;DHT22;13927;51.534;11.866;2023-08-17T08:31:38;25.00;99.90
26182;DHT22;13927;51.534;11.866;2023-08-17T08:34:04;25.20;99.90
26182;DHT22;13927;51.534;11.866;2023-08-17T08:36:33;25.50;99.90
26182;DHT22;13927;51.534;11.866;2023-08-17T08:38:58;25.60;99.90
26182;DHT22;13927;51.534;11.866;2023-08-17T08:41:29;25.60;99.90
26182;DHT22;13927;51.534;11.866;2023-08-17T08:43:55;25.60;99.90
26182;DHT22;13927;51.534;11.866;2023-08-17T08:46:24;25.60;99.90
26182;DHT22;13927;51.534;11.866;2023-08-17T08:48:52;25.70;99.90
26182;DHT22;13927;51.534;11.866;2023-08-17T08:51:26;25.80;99.90
26182;DHT22;13927;51.534;11.866;2023-08-17T08:54:01;25.80;99.90
26182;DHT22;13927;51.534;11.866;2023-08-17T08:56:32;25.70;99.90
26182;DHT22;13927;51.534;11.866;2023-08-17T08:59:01;25.60;99.90
26182;DHT22;13927;51.534;11.866;2023-08-17T09:04:46;25.40;99.90
26182;DHT22;13927;51.534;11.866;2023-08-17T09:07:13;25.20;99.90
26182;DHT22;13927;51.534;11.866;2023-08-17T09:09:40;25.10;99.90
26182;DHT22;13927;51.534;11.866;2023-08-17T09:12:40;25.00;99.90
26182;DHT22;13927;51.534;11.866;2023-08-17T09:15:06;25.20;99.90
26182;DHT22;13927;51.534;11.866;2023-08-17T09:17:32;25.40;99.90
26182;DHT22;13927;51.534;11.866;2023-08-17T09:20:04;25.50;99.90
26182;DHT22;13927;51.534;11.866;2023-08-17T09:22:40;25.70;99.90
26182;DHT22;13927;51.534;11.866;2023-08-17T09:25:10;26.00;99.90
26182;DHT22;13927;51.534;11.866;2023-08-17T09:27:39;26.00;99.90
26182;DHT22;13927;51.534;11.866;2023-08-17T09:30:10;26.00;99.90
26182;DHT22;13927;51.534;11.866;2023-08-17T09:32:39;25.90;99.90
26182;DHT22;13927;51.534;11.866;2023-08-17T09:35:09;25.90;99.90
26182;DHT22;13927;51.534;11.866;2023-08-17T09:37:35;25.80;99.90
26182;DHT22;13927;51.534;11.866;2023-08-17T09:40:20;25.80;99.90
26182;DHT22;13927;51.534;11.866;2023-08-17T09:42:45;25.80;99.90
26182;DHT22;13927;51.534;11.866;2023-08-17T09:45:17;25.80;99.90
26182;DHT22;13927;51.534;11.866;2023-08-17T09:47:45;25.70;99.90
26182;DHT22;13927;51.534;11.866;2023-08-17T09:50:11;25.50;99.90
26182;DHT22;13927;51.534;11.866;2023-08-17T09:52:40;25.50;99.90
26182;DHT22;13927;51.534;11.866;2023-08-17T09:55:07;25.40;99.90
26182;DHT22;13927;51.534;11.866;2023-08-17T09:57:36;25.50;99.90
26182;DHT22;13927;51.534;11.866;2023-08-17T10:00:01;25.60;99.90
26182;DHT22;13927;51.534;11.866;2023-08-17T10:02:28;25.70;99.90
26182;DHT22;13927;51.534;11.866;2023-08-17T10:04:57;25.80;99.90
26182;DHT22;13927;51.534;11.866;2023-08-17T10:07:29;26.00;99.90
26182;DHT22;13927;51.534;11.866;2023-08-17T10:10:03;26.30;99.90
26182;DHT22;13927;51.534;11.866;2023-08-17T10:12:37;26.70;99.90
26182;DHT22;13927;51.534;11.866;2023-08-17T10:15:23;26.90;99.90
26182;DHT22;13927;51.534;11.866;2023-08-17T10:18:00;27.10;99.90
26182;DHT22;13927;51.534;11.866;2023-08-17T10:20:38;27.20;99.90
26182;DHT22;13927;51.534;11.866;2023-08-17T10:23:18;27.20;99.90
26182;DHT22;13927;51.534;11.866;2023-08-17T10:25:45;27.40;99.90
26182;DHT22;13927;51.534;11.866;2023-08-17T10:28:13;27.50;99.90
26182;DHT22;13927;51.534;11.866;2023-08-17T10:30:43;27.50;99.90
26182;DHT22;13927;51.534;11.866;2023-08-17T10:33:10;27.40;99.90
26182;DHT22;13927;51.534;11.866;2023-08-17T10:35:37;27.40;99.90
26182;DHT22;13927;51.534;11.866;2023-08-17T10:38:04;27.50;99.90
26182;DHT22;13927;51.534;11.866;2023-08-17T10:40:41;27.50;99.90
26182;DHT22;13927;51.534;11.866;2023-08-17T10:43:08;27.80;99.90
26182;DHT22;13927;51.534;11.866;2023-08-17T10:45:40;28.00;99.90
26182;DHT22;13927;51.534;11.866;2023-08-17T10:50:37;28.20;99.90
26182;DHT22;13927;51.534;11.866;2023-08-17T10:53:15;28.20;99.90
26182;DHT22;13927;51.534;11.866;2023-08-17T10:59:00;29.30;99.90
26182;DHT22;13927;51.534;11.866;2023-08-17T11:01:35;29.50;99.90
26182;DHT22;13927;51.534;11.866;2023-08-17T11:04:17;30.00;99.90
26182;DHT22;13927;51.534;11.866;2023-08-17T11:06:44;30.30;99.90
26182;DHT22;13927;51.534;11.866;2023-08-17T11:09:11;30.60;99.90
26182;DHT22;13927;51.534;11.866;2023-08-17T11:11:37;30.80;99.90
26182;DHT22;13927;51.534;11.866;2023-08-17T11:14:03;31.00;99.90
26182;DHT22;13927;51.534;11.866;2023-08-17T11:16:29;31.20;99.90
26182;DHT22;13927;51.534;11.866;2023-08-17T11:18:55;31.30;99.90
26182;DHT22;13927;51.534;11.866;2023-08-17T11:21:24;31.30;99.90
26182;DHT22;13927;51.534;11.866;2023-08-17T11:23:50;31.00;99.90
26182;DHT22;13927;51.534;11.866;2023-08-17T11:26:16;30.70;99.90
26182;DHT22;13927;51.534;11.866;2023-08-17T11:28:43;30.60;99.90
26182;DHT22;13927;51.534;11.866;2023-08-17T11:31:11;30.50;99.90
26182;DHT22;13927;51.534;11.866;2023-08-17T11:33:50;30.10;99.90
26182;DHT22;13927;51.534;11.866;2023-08-17T11:36:16;30.00;99.90
26182;DHT22;13927;51.534;11.866;2023-08-17T11:38:42;30.30;99.90
26182;DHT22;13927;51.534;11.866;2023-08-17T11:41:09;30.70;99.90
26182;DHT22;13927;51.534;11.866;2023-08-17T11:43:38;31.10;99.90
26182;DHT22;13927;51.534;11.866;2023-08-17T11:46:04;31.50;99.90
26182;DHT22;13927;51.534;11.866;2023-08-17T11:48:31;31.70;99.90
26182;DHT22;13927;51.534;11.866;2023-08-17T11:50:56;32.00;99.90
26182;DHT22;13927;51.534;11.866;2023-08-17T11:53:32;32.50;99.90
26182;DHT22;13927;51.534;11.866;2023-08-17T11:55:59;32.70;99.90
26182;DHT22;13927;51.534;11.866;2023-08-17T11:58:45;32.80;99.90
26182;DHT22;13927;51.534;11.866;2023-08-17T12:01:12;32.90;99.90
26182;DHT22;13927;51.534;11.866;2023-08-17T12:03:44;33.00;99.90
26182;DHT22;13927;51.534;11.866;2023-08-17T12:06:13;33.30;99.90
26182;DHT22;13927;51.534;11.866;2023-08-17T12:08:47;33.50;99.90
26182;DHT22;13927;51.534;11.866;2023-08-17T12:11:33;33.20;99.90
26182;DHT22;13927;51.534;11.866;2023-08-17T12:17:45;32.90;99.90
26182;DHT22;13927;51.534;11.866;2023-08-17T12:20:19;32.90;99.90
26182;DHT22;13927;51.534;11.866;2023-08-17T12:22:48;32.80;99.90
26182;DHT22;13927;51.534;11.866;2023-08-17T12:25:14;32.80;99.90
26182;DHT22;13927;51.534;11.866;2023-08-17T12:27:40;32.90;99.90
26182;DHT22;13927;51.534;11.866;2023-08-17T12:30:26;33.10;99.90
26182;DHT22;13927;51.534;11.866;2023-08-17T12:32:53;33.40;99.90
26182;DHT22;13927;51.534;11.866;2023-08-17T12:35:18;33.80;99.90
26182;DHT22;13927;51.534;11.866;2023-08-17T12:37:47;34.10;99.90
26182;DHT22;13927;51.534;11.866;2023-08-17T12:40:14;34.20;99.90
26182;DHT22;13927;51.534;11.866;2023-08-17T12:42:40;34.10;99.90
26182;DHT22;13927;51.534;11.866;2023-08-17T12:45:14;34.10;99.90
26182;DHT22;13927;51.534;11.866;2023-08-17T12:47:40;34.10;99.90
26182;DHT22;13927;51.534;11.866;2023-08-17T12:50:06;33.90;99.90
26182;DHT22;13927;51.534;11.866;2023-08-17T12:52:32;34.00;99.90
26182;DHT22;13927;51.534;11.866;2023-08-17T12:54:58;34.10;99.90
26182;DHT22;13927;51.534;11.866;2023-08-17T12:57:24;34.30;99.90
26182;DHT22;13927;51.534;11.866;2023-08-17T12:59:49;34.20;99.90
26182;DHT22;13927;51.534;11.866;2023-08-17T13:02:15;33.90;99.90
26182;DHT22;13927;51.534;11.866;2023-08-17T13:04:42;33.50;99.90
26182;DHT22;13927;51.534;11.866;2023-08-17T13:07:07;33.10;99.90
26182;DHT22;13927;51.534;11.866;2023-08-17T13:09:33;32.30;99.90
26182;DHT22;13927;51.534;11.866;2023-08-17T13:11:59;32.10;99.90
26182;DHT22;13927;51.534;11.866;2023-08-17T13:14:25;31.90;99.90
26182;DHT22;13927;51.534;11.866;2023-08-17T13:16:51;31.70;99.90
26182;DHT22;13927;51.534;11.866;2023-08-17T13:19:18;31.80;99.90
26182;DHT22;13927;51.534;11.866;2023-08-17T13:21:44;31.70;99.90
26182;DHT22;13927;51.534;11.866;2023-08-17T13:24:10;31.80;99.90
26182;DHT22;13927;51.534;11.866;2023-08-17T13:26:36;31.90;99.90
26182;DHT22;13927;51.534;11.866;2023-08-17T13:29:08;32.20;99.90
26182;DHT22;13927;51.534;11.866;2023-08-17T13:31:35;32.20;99.90
26182;DHT22;13927;51.534;11.866;2023-08-17T13:34:04;32.10;99.90
26182;DHT22;13927;51.534;11.866;2023-08-17T13:36:29;32.10;99.90
26182;DHT22;13927;51.534;11.866;2023-08-17T13:39:01;32.40;99.90
26182;DHT22;13927;51.534;11.866;2023-08-17T13:41:27;32.70;99.90
26182;DHT22;13927;51.534;11.866;2023-08-17T13:43:53;32.90;99.90
26182;DHT22;13927;51.534;11.866;2023-08-17T13:46:19;32.80;99.90
26182;DHT22;13927;51.534;11.866;2023-08-17T13:48:44;32.70;99.90
26182;DHT22;13927;51.534;11.866;2023-08-17T13:51:10;32.80;99.90
26182;DHT22;13927;51.534;11.866;2023-08-17T13:53:36;32.80;99.90
26182;DHT22;13927;51.534;11.866;2023-08-17T13:56:02;32.90;99.90
26182;DHT22;13927;51.534;11.866;2023-08-17T13:58:47;32.70;99.90
26182;DHT22;13927;51.534;11.866;2023-08-17T14:01:12;32.30;99.90
26182;DHT22;13927;51.534;11.866;2023-08-17T14:07:14;32.10;99.90
26182;DHT22;13927;51.534;11.866;2023-08-17T14:09:40;32.20;99.90
26182;DHT22;13927;51.534;11.866;2023-08-17T14:15:46;32.40;99.90
26182;DHT22;13927;51.534;11.866;2023-08-17T14:18:12;32.20;99.90
26182;DHT22;13927;51.534;11.866;2023-08-17T14:20:37;32.00;99.90
26182;DHT22;13927;51.534;11.866;2023-08-17T14:23:03;31.80;99.90
26182;DHT22;13927;51.534;11.866;2023-08-17T14:25:29;31.50;99.90
26182;DHT22;13927;51.534;11.866;2023-08-17T14:27:57;31.30;99.90
26182;DHT22;13927;51.534;11.866;2023-08-17T14:34:03;30.40;99.90
26182;DHT22;13927;51.534;11.866;2023-08-17T14:36:31;30.00;99.90
26182;DHT22;13927;51.534;11.866;2023-08-17T14:39:04;29.90;99.90
26182;DHT22;13927;51.534;11.866;2023-08-17T14:41:30;29.70;99.90
26182;DHT22;13927;51.534;11.866;2023-08-17T14:43:59;29.40;99.90
26182;DHT22;13927;51.534;11.866;2023-08-17T14:46:25;29.50;99.90
26182;DHT22;13927;51.534;11.866;2023-08-17T14:48:51;29.50;99.90
26182;DHT22;13927;51.534;11.866;2023-08-17T14:54:58;29.80;99.90
26182;DHT22;13927;51.534;11.866;2023-08-17T14:57:23;29.80;99.90
26182;DHT22;13927;51.534;11.866;2023-08-17T14:59:49;29.80;99.90
26182;DHT22;13927;51.534;11.866;2023-08-17T15:05:56;29.80;99.90
26182;DHT22;13927;51.534;11.866;2023-08-17T15:08:22;29.80;99.90
26182;DHT22;13927;51.534;11.866;2023-08-17T15:10:49;29.80;99.90
26182;DHT22;13927;51.534;11.866;2023-08-17T15:13:16;29.70;99.90
26182;DHT22;13927;51.534;11.866;2023-08-17T15:15:43;29.70;99.90
26182;DHT22;13927;51.534;11.866;2023-08-17T15:18:43;29.80;99.90
26182;DHT22;13927;51.534;11.866;2023-08-17T15:21:09;29.80;99.90
26182;DHT22;13927;51.534;11.866;2023-08-17T15:23:34;29.80;99.90
26182;DHT22;13927;51.534;11.866;2023-08-17T15:29:41;29.80;99.90
26182;DHT22;13927;51.534;11.866;2023-08-17T15:32:09;29.60;99.90
26182;DHT22;13927;51.534;11.866;2023-08-17T15:34:35;29.30;99.90
26182;DHT22;13927;51.534;11.866;2023-08-17T15:37:01;29.10;99.90
26182;DHT22;13927;51.534;11.866;2023-08-17T15:39:27;28.90;99.90
26182;DHT22;13927;51.534;11.866;2023-08-17T15:41:53;28.40;99.90
26182;DHT22;13927;51.534;11.866;2023-08-17T15:44:19;28.10;99.90
26182;DHT22;13927;51.534;11.866;2023-08-17T15:46:57;28.00;99.90
26182;DHT22;13927;51.534;11.866;2023-08-17T15:49:24;27.80;99.90
26182;DHT22;13927;51.534;11.866;2023-08-17T15:51:49;27.80;99.90
26182;DHT22;13927;51.534;11.866;2023-08-17T15:54:15;27.50;99.90
26182;DHT22;13927;51.534;11.866;2023-08-17T15:56:42;27.40;99.90
26182;DHT22;13927;51.534;11.866;2023-08-17T15:59:09;27.40;99.90
26182;DHT22;13927;51.534;11.866;2023-08-17T16:01:35;27.30;99.90
26182;DHT22;13927;51.534;11.866;2023-08-17T16:04:02;27.20;99.90
26182;DHT22;13927;51.534;11.866;2023-08-17T16:06:28;27.20;99.90
26182;DHT22;13927;51.534;11.866;2023-08-17T16:08:53;27.20;99.90
26182;DHT22;13927;51.534;11.866;2023-08-17T16:14:56;27.00;99.90
26182;DHT22;13927;51.534;11.866;2023-08-17T16:17:21;26.70;99.90
26182;DHT22;13927;51.534;11.866;2023-08-17T16:19:47;26.70;99.90